createdAt,value
2023-03-11T00:00:47.406Z,84.20
2023-03-11T00:05:53.822Z,84.00
2023-03-11T00:11:00.755Z,84.10
2023-03-11T00:16:04.667Z,84.00
2023-03-11T00:21:16.321Z,84.00
2023-03-11T00:26:20.047Z,84.20
2023-03-11T00:31:23.560Z,84.20
2023-03-11T00:36:31.694Z,84.30
2023-03-11T00:41:35.607Z,84.20
2023-03-11T00:46:39.140Z,84.30
2023-03-11T00:51:45.114Z,84.20
2023-03-11T00:56:48.610Z,84.00
2023-03-11T01:01:52.222Z,84.10
2023-03-11T01:06:57.031Z,84.10
2023-03-11T01:12:00.631Z,84.30
2023-03-11T01:17:04.103Z,84.40
2023-03-11T01:22:10.323Z,84.10
2023-03-11T01:27:13.921Z,84.10
2023-03-11T01:32:17.438Z,84.40
2023-03-11T01:37:22.359Z,84.20
2023-03-11T01:42:26.061Z,84.40
2023-03-11T01:47:40.687Z,84.50
2023-03-11T01:52:46.293Z,84.40
2023-03-11T01:57:50.204Z,84.60
2023-03-11T02:02:56.169Z,84.30
2023-03-11T02:08:01.735Z,84.50
2023-03-11T02:13:05.311Z,84.40
2023-03-11T02:18:09.416Z,84.10
2023-03-11T02:23:15.894Z,84.50
2023-03-11T02:28:21.509Z,84.40
2023-03-11T02:33:26.719Z,84.60
2023-03-11T02:38:30.193Z,84.60
2023-03-11T02:43:40.724Z,84.50
2023-03-11T02:48:44.815Z,84.50
2023-03-11T02:53:51.028Z,84.30
2023-03-11T02:58:55.906Z,84.50
2023-03-11T03:03:59.429Z,84.70
2023-03-11T03:09:02.982Z,84.60
2023-03-11T03:14:07.864Z,84.20
2023-03-11T03:19:11.396Z,84.60
2023-03-11T03:24:14.845Z,84.40
2023-03-11T03:29:19.794Z,84.40
2023-03-11T03:34:23.300Z,84.30
2023-03-11T03:39:28.741Z,84.40
2023-03-11T03:44:35.022Z,84.60
2023-03-11T03:49:38.493Z,84.30
2023-03-11T03:54:41.958Z,84.40
2023-03-11T03:59:46.800Z,84.50
2023-03-11T04:04:50.325Z,84.30
2023-03-11T04:09:53.763Z,84.50
2023-03-11T04:14:58.687Z,84.60
2023-03-11T04:20:02.202Z,84.40
2023-03-11T04:25:06.351Z,84.70
2023-03-11T04:30:13.023Z,84.50
2023-03-11T04:35:16.500Z,84.60
2023-03-11T04:40:20.165Z,84.50
2023-03-11T04:45:25.104Z,84.60
2023-03-11T04:50:28.666Z,84.60
2023-03-11T04:55:33.537Z,84.40
2023-03-11T05:00:38.335Z,84.40
2023-03-11T05:05:41.691Z,84.60
2023-03-11T05:10:45.051Z,84.60
2023-03-11T05:15:50.036Z,84.70
2023-03-11T05:20:53.650Z,84.70
2023-03-11T05:25:57.026Z,84.70
2023-03-11T05:31:01.874Z,84.50
2023-03-11T05:36:06.971Z,84.50
2023-03-11T05:41:10.369Z,84.50
2023-03-11T05:46:15.197Z,84.70
2023-03-11T05:51:18.613Z,84.50
2023-03-11T05:56:23.208Z,84.50
2023-03-11T06:01:28.041Z,84.40
2023-03-11T06:06:31.514Z,84.30
2023-03-11T06:11:34.929Z,84.60
2023-03-11T06:16:39.721Z,84.00
2023-03-11T06:21:43.252Z,84.30
2023-03-11T06:26:46.972Z,84.50
2023-03-11T06:31:51.863Z,84.30
2023-03-11T06:36:55.989Z,84.20
2023-03-11T06:41:59.350Z,84.20
2023-03-11T06:47:05.291Z,84.20
2023-03-11T06:52:08.860Z,84.40
2023-03-11T06:57:12.533Z,84.40
2023-03-11T07:02:18.808Z,84.40
2023-03-11T07:07:22.195Z,84.30
2023-03-11T07:12:25.695Z,84.40
2023-03-11T07:17:30.590Z,84.20
2023-03-11T07:22:33.952Z,84.20
2023-03-11T07:27:37.353Z,84.40
2023-03-11T07:32:42.940Z,84.20
2023-03-11T07:37:46.350Z,84.10
2023-03-11T07:42:49.768Z,84.20
2023-03-11T07:47:54.650Z,84.10
2023-03-11T07:52:58.049Z,84.00
2023-03-11T07:58:01.442Z,84.30
2023-03-11T08:03:06.413Z,84.20
2023-03-11T08:08:09.781Z,84.40
2023-03-11T08:13:13.347Z,84.10
2023-03-11T08:18:18.130Z,84.00
2023-03-11T08:23:21.463Z,84.00
2023-03-11T08:28:24.856Z,84.10
2023-03-11T08:33:29.677Z,84.30
2023-03-11T08:38:33.465Z,84.30
2023-03-11T08:43:37.048Z,84.30
2023-03-11T08:48:41.832Z,84.10
2023-03-11T08:53:45.416Z,84.20
2023-03-11T08:58:49.122Z,84.00
2023-03-11T09:03:54.053Z,84.20
2023-03-11T09:08:57.632Z,84.00
2023-03-11T09:14:01.014Z,84.40
2023-03-11T09:19:07.680Z,84.20
2023-03-11T09:24:11.158Z,84.60
2023-03-11T09:29:14.555Z,84.30
2023-03-11T09:34:19.529Z,84.20
2023-03-11T09:39:23.190Z,84.50
2023-03-11T09:44:30.990Z,84.40
2023-03-11T09:49:56.545Z,84.40
2023-03-11T09:55:01.174Z,84.50
2023-03-11T10:00:06.759Z,84.60
2023-03-11T10:05:16.272Z,84.80
2023-03-11T10:10:19.887Z,84.80
2023-03-11T10:15:28.189Z,84.70
2023-03-11T10:20:39.971Z,84.60
2023-03-11T10:25:51.700Z,84.80
2023-03-11T10:30:57.798Z,84.80
2023-03-11T10:36:07.612Z,84.80
2023-03-11T10:41:17.397Z,84.50
2023-03-11T10:46:22.461Z,84.30
2023-03-11T10:51:28.898Z,84.20
2023-03-11T10:56:34.082Z,84.10
2023-03-11T11:01:37.606Z,84.00
2023-03-11T11:06:42.532Z,84.20
2023-03-11T11:12:03.490Z,84.10
2023-03-11T11:17:06.972Z,83.90
2023-03-11T11:22:15.688Z,83.60
2023-03-11T11:27:21.980Z,83.10
2023-03-11T11:32:27.362Z,83.00
2023-03-11T11:37:34.826Z,82.80
2023-03-11T11:42:39.734Z,82.70
2023-03-11T11:47:45.544Z,82.90
2023-03-11T11:52:54.397Z,82.30
2023-03-11T11:57:58.494Z,82.50
2023-03-11T12:03:27.115Z,82.20
2023-03-11T12:08:37.951Z,82.70
2023-03-11T12:13:51.176Z,82.50
2023-03-11T12:18:58.356Z,82.40
2023-03-11T12:24:14.223Z,82.80
2023-03-11T12:29:25.978Z,82.60
2023-03-11T12:34:30.057Z,82.60
2023-03-11T12:39:35.887Z,82.40
2023-03-11T12:44:39.832Z,82.90
2023-03-11T12:49:44.321Z,83.00
2023-03-11T12:54:49.699Z,82.50
2023-03-11T13:00:12.579Z,83.00
2023-03-11T13:05:23.068Z,82.80
2023-03-11T13:10:40.167Z,83.30
2023-03-11T13:15:43.606Z,83.40
2023-03-11T13:20:56.261Z,83.40
2023-03-11T13:26:13.092Z,83.20
2023-03-11T13:31:25.775Z,83.20
2023-03-11T13:36:52.714Z,83.40
2023-03-11T13:41:57.732Z,83.30
2023-03-11T13:47:05.997Z,82.90
2023-03-11T13:52:11.219Z,83.20
2023-03-11T13:57:25.591Z,83.00
2023-03-11T14:02:29.223Z,83.20
2023-03-11T14:07:35.384Z,83.10
2023-03-11T14:12:40.646Z,83.10
2023-03-11T14:17:45.299Z,82.80
2023-03-11T14:22:51.671Z,82.90
2023-03-11T14:27:58.424Z,82.80
2023-03-11T14:33:03.951Z,82.70
2023-03-11T15:12:50.060Z,83.90
2023-03-11T15:17:54.716Z,83.20
2023-03-11T15:23:01.392Z,82.90
2023-03-11T15:28:25.497Z,83.00
2023-03-11T15:33:34.694Z,82.70
2023-03-11T15:38:38.160Z,82.40
2023-03-11T15:43:46.991Z,82.60
2023-03-11T15:48:50.623Z,82.30
2023-03-11T15:53:54.484Z,82.30
2023-03-11T15:58:59.372Z,82.40
2023-03-11T16:04:03.142Z,82.40
2023-03-11T16:09:06.594Z,82.00
2023-03-11T16:14:17.160Z,82.20
2023-03-11T16:19:20.525Z,82.30
2023-03-11T16:24:25.088Z,82.00
2023-03-11T16:29:30.723Z,82.10
2023-03-11T16:34:35.114Z,81.60
2023-03-11T16:39:39.082Z,82.00
2023-03-11T16:44:43.841Z,82.00
2023-03-11T16:49:50.531Z,81.90
2023-03-11T16:54:53.872Z,81.80
2023-03-11T16:59:58.709Z,81.80
2023-03-11T17:05:03.114Z,81.80
2023-03-11T17:10:07.670Z,81.60
2023-03-11T17:15:12.881Z,81.50
2023-03-11T17:20:16.250Z,81.80
2023-03-11T17:40:59.333Z,82.10
2023-03-11T17:46:02.698Z,82.10
2023-03-11T17:51:07.411Z,82.30
2023-03-11T17:56:12.917Z,82.50
2023-03-11T18:01:17.492Z,82.40
2023-03-11T18:06:21.804Z,82.40
2023-03-11T18:11:28.301Z,82.60
2023-03-11T18:16:33.822Z,82.50
2023-03-11T18:21:37.263Z,82.10
2023-03-11T18:26:42.051Z,82.50
2023-03-11T18:31:45.425Z,82.60
2023-03-11T18:36:49.565Z,82.80
2023-03-11T18:41:54.394Z,82.40
2023-03-11T18:46:57.724Z,82.50
2023-03-11T18:52:01.102Z,82.50
2023-03-11T18:57:05.901Z,82.80
2023-03-11T19:02:10.692Z,82.80
2023-03-11T19:07:14.230Z,82.00
2023-03-11T19:12:18.992Z,82.90
2023-03-11T19:17:22.382Z,83.10
2023-03-11T19:22:25.924Z,83.50
2023-03-11T19:27:30.698Z,83.50
2023-03-11T19:32:34.100Z,83.70
2023-03-11T19:37:37.462Z,84.00
2023-03-11T19:42:42.291Z,83.80
2023-03-11T19:47:50.118Z,83.70
2023-03-11T19:52:53.559Z,84.00
2023-03-11T19:57:58.314Z,83.90
2023-03-11T20:03:02.879Z,83.70
2023-03-11T20:08:07.495Z,83.50
2023-03-11T20:13:12.487Z,83.80
2023-03-11T20:18:16.014Z,84.00
2023-03-11T20:23:19.397Z,83.90
2023-03-11T20:28:24.256Z,84.00
2023-03-11T20:33:27.714Z,83.70
2023-03-11T20:38:31.135Z,84.00
2023-03-11T20:43:36.567Z,83.90
2023-03-11T20:48:40.100Z,84.00
2023-03-11T20:53:43.809Z,83.90
2023-03-11T20:58:51.138Z,84.00
2023-03-11T21:03:55.372Z,83.60
2023-03-11T21:09:00.539Z,84.00
2023-03-11T21:14:05.895Z,84.00
2023-03-11T21:19:11.623Z,83.90
2023-03-11T21:24:15.414Z,83.80
2023-03-11T21:29:20.354Z,84.10
2023-03-11T21:34:23.774Z,83.90
2023-03-11T21:39:27.323Z,84.00
2023-03-11T21:44:32.290Z,84.10
2023-03-11T21:49:36.027Z,84.20
2023-03-11T21:54:39.469Z,84.40
2023-03-11T21:59:44.261Z,84.60
2023-03-11T22:04:48.601Z,84.40
2023-03-11T22:09:53.437Z,84.80
2023-03-11T22:14:58.380Z,84.80
2023-03-11T22:20:01.956Z,84.90
2023-03-11T22:25:05.713Z,84.90
2023-03-11T22:30:11.888Z,85.00
2023-03-11T22:35:15.447Z,84.80
2023-03-11T22:40:18.937Z,85.30
2023-03-11T22:45:23.828Z,85.10
2023-03-11T22:50:27.209Z,85.30
2023-03-11T22:55:30.571Z,85.30
2023-03-11T23:00:36.828Z,85.40
2023-03-11T23:05:42.247Z,85.40
2023-03-11T23:10:47.863Z,85.20
2023-03-11T23:15:52.697Z,85.20
2023-03-11T23:20:56.171Z,85.10
2023-03-11T23:25:59.560Z,84.80
2023-03-11T23:31:05.446Z,84.90
2023-03-11T23:36:10.630Z,84.60
2023-03-11T23:41:15.710Z,85.00
2023-03-11T23:46:20.868Z,84.60
2023-03-11T23:51:24.393Z,84.50
2023-03-11T23:56:27.728Z,84.40
